sensor_id;sensor_type;location;lat;lon;timestamp;temperature;humidity
18101;DHT22;9177;49.156;8.142;2023-07-13T00:02:24;26.50;95.90
18101;DHT22;9177;49.156;8.142;2023-07-13T00:04:54;26.50;95.90
18101;DHT22;9177;49.156;8.142;2023-07-13T00:07:24;26.50;95.90
18101;DHT22;9177;49.156;8.142;2023-07-13T00:09:52;26.50;95.90
18101;DHT22;9177;49.156;8.142;2023-07-13T00:12:26;26.50;96.00
18101;DHT22;9177;49.156;8.142;2023-07-13T00:14:55;26.50;96.00
18101;DHT22;9177;49.156;8.142;2023-07-13T00:17:22;26.50;96.00
18101;DHT22;9177;49.156;8.142;2023-07-13T00:19:52;26.50;96.00
18101;DHT22;9177;49.156;8.142;2023-07-13T00:22:23;26.50;96.00
18101;DHT22;9177;49.156;8.142;2023-07-13T00:24:51;26.50;96.00
18101;DHT22;9177;49.156;8.142;2023-07-13T00:27:18;26.50;96.00
18101;DHT22;9177;49.156;8.142;2023-07-13T00:29:47;26.50;96.00
18101;DHT22;9177;49.156;8.142;2023-07-13T00:32:15;26.50;96.00
18101;DHT22;9177;49.156;8.142;2023-07-13T00:34:42;26.50;96.00
18101;DHT22;9177;49.156;8.142;2023-07-13T00:37:26;26.50;96.00
18101;DHT22;9177;49.156;8.142;2023-07-13T00:39:55;26.50;96.00
18101;DHT22;9177;49.156;8.142;2023-07-13T00:42:23;26.50;96.00
18101;DHT22;9177;49.156;8.142;2023-07-13T00:46:02;26.50;96.00
18101;DHT22;9177;49.156;8.142;2023-07-13T00:47:54;26.50;96.00
18101;DHT22;9177;49.156;8.142;2023-07-13T00:50:22;26.40;96.00
18101;DHT22;9177;49.156;8.142;2023-07-13T00:52:53;26.40;96.10
18101;DHT22;9177;49.156;8.142;2023-07-13T00:55:31;26.40;96.00
18101;DHT22;9177;49.156;8.142;2023-07-13T00:57:59;26.50;96.10
18101;DHT22;9177;49.156;8.142;2023-07-13T01:00:29;26.40;96.10
18101;DHT22;9177;49.156;8.142;2023-07-13T01:02:56;26.40;96.10
18101;DHT22;9177;49.156;8.142;2023-07-13T01:05:24;26.40;96.20
18101;DHT22;9177;49.156;8.142;2023-07-13T01:07:52;26.40;96.10
18101;DHT22;9177;49.156;8.142;2023-07-13T01:10:22;26.40;96.10
18101;DHT22;9177;49.156;8.142;2023-07-13T01:12:51;26.40;96.10
18101;DHT22;9177;49.156;8.142;2023-07-13T01:15:38;26.40;96.10
18101;DHT22;9177;49.156;8.142;2023-07-13T01:18:11;26.40;96.10
18101;DHT22;9177;49.156;8.142;2023-07-13T01:20:38;26.40;96.10
18101;DHT22;9177;49.156;8.142;2023-07-13T01:23:08;26.40;96.10
18101;DHT22;9177;49.156;8.142;2023-07-13T01:25:37;26.40;96.10
18101;DHT22;9177;49.156;8.142;2023-07-13T01:28:06;26.40;96.10
18101;DHT22;9177;49.156;8.142;2023-07-13T01:30:38;26.40;96.10
18101;DHT22;9177;49.156;8.142;2023-07-13T01:33:06;26.40;96.20
18101;DHT22;9177;49.156;8.142;2023-07-13T01:35:37;26.40;96.20
18101;DHT22;9177;49.156;8.142;2023-07-13T01:38:05;26.40;96.20
18101;DHT22;9177;49.156;8.142;2023-07-13T01:40:36;26.40;96.20
18101;DHT22;9177;49.156;8.142;2023-07-13T01:43:03;26.40;96.20
18101;DHT22;9177;49.156;8.142;2023-07-13T01:45:31;26.40;96.20
18101;DHT22;9177;49.156;8.142;2023-07-13T01:47:58;26.40;96.20
18101;DHT22;9177;49.156;8.142;2023-07-13T01:50:25;26.40;96.20
18101;DHT22;9177;49.156;8.142;2023-07-13T01:52:56;26.30;96.20
18101;DHT22;9177;49.156;8.142;2023-07-13T01:55:24;26.30;96.20
18101;DHT22;9177;49.156;8.142;2023-07-13T01:58:00;26.30;96.20
18101;DHT22;9177;49.156;8.142;2023-07-13T02:00:28;26.30;96.20
18101;DHT22;9177;49.156;8.142;2023-07-13T02:02:56;26.30;96.20
18101;DHT22;9177;49.156;8.142;2023-07-13T02:05:27;26.40;96.20
18101;DHT22;9177;49.156;8.142;2023-07-13T02:07:54;26.30;96.20
18101;DHT22;9177;49.156;8.142;2023-07-13T02:10:21;26.30;96.20
18101;DHT22;9177;49.156;8.142;2023-07-13T02:12:49;26.30;96.20
18101;DHT22;9177;49.156;8.142;2023-07-13T02:15:25;26.30;96.20
18101;DHT22;9177;49.156;8.142;2023-07-13T02:17:55;26.30;96.20
18101;DHT22;9177;49.156;8.142;2023-07-13T02:20:22;26.30;96.20
18101;DHT22;9177;49.156;8.142;2023-07-13T02:22:49;26.30;96.20
18101;DHT22;9177;49.156;8.142;2023-07-13T02:25:16;26.30;96.20
18101;DHT22;9177;49.156;8.142;2023-07-13T02:27:43;26.30;96.20
18101;DHT22;9177;49.156;8.142;2023-07-13T02:30:11;26.30;96.20
18101;DHT22;9177;49.156;8.142;2023-07-13T02:32:45;26.30;96.20
18101;DHT22;9177;49.156;8.142;2023-07-13T02:35:12;26.30;96.20
18101;DHT22;9177;49.156;8.142;2023-07-13T02:37:39;26.30;96.20
18101;DHT22;9177;49.156;8.142;2023-07-13T02:40:07;26.30;96.20
18101;DHT22;9177;49.156;8.142;2023-07-13T02:42:34;26.30;96.20
18101;DHT22;9177;49.156;8.142;2023-07-13T02:45:01;26.30;96.20
18101;DHT22;9177;49.156;8.142;2023-07-13T02:47:28;26.30;96.20
18101;DHT22;9177;49.156;8.142;2023-07-13T02:49:57;26.30;96.20
18101;DHT22;9177;49.156;8.142;2023-07-13T02:52:25;26.30;96.20
18101;DHT22;9177;49.156;8.142;2023-07-13T02:54:55;26.30;96.20
18101;DHT22;9177;49.156;8.142;2023-07-13T02:57:28;26.30;96.20
18101;DHT22;9177;49.156;8.142;2023-07-13T02:59:58;26.30;96.20
18101;DHT22;9177;49.156;8.142;2023-07-13T03:02:25;26.30;96.20
18101;DHT22;9177;49.156;8.142;2023-07-13T03:04:54;26.30;96.20
18101;DHT22;9177;49.156;8.142;2023-07-13T03:07:22;26.30;96.20
18101;DHT22;9177;49.156;8.142;2023-07-13T03:09:55;26.30;96.20
18101;DHT22;9177;49.156;8.142;2023-07-13T03:12:23;26.30;96.20
18101;DHT22;9177;49.156;8.142;2023-07-13T03:14:50;26.30;96.20
18101;DHT22;9177;49.156;8.142;2023-07-13T03:17:18;26.30;96.20
18101;DHT22;9177;49.156;8.142;2023-07-13T03:19:45;26.30;96.20
18101;DHT22;9177;49.156;8.142;2023-07-13T03:22:15;26.20;96.20
18101;DHT22;9177;49.156;8.142;2023-07-13T03:24:46;26.30;96.20
18101;DHT22;9177;49.156;8.142;2023-07-13T03:27:14;26.30;96.20
18101;DHT22;9177;49.156;8.142;2023-07-13T03:29:41;26.30;96.20
18101;DHT22;9177;49.156;8.142;2023-07-13T03:32:08;26.20;96.20
18101;DHT22;9177;49.156;8.142;2023-07-13T03:34:35;26.20;96.20
18101;DHT22;9177;49.156;8.142;2023-07-13T03:37:02;26.20;96.20
18101;DHT22;9177;49.156;8.142;2023-07-13T03:39:29;26.20;96.20
18101;DHT22;9177;49.156;8.142;2023-07-13T03:41:57;26.20;96.20
18101;DHT22;9177;49.156;8.142;2023-07-13T03:44:24;26.20;96.20
18101;DHT22;9177;49.156;8.142;2023-07-13T03:46:57;26.20;96.20
18101;DHT22;9177;49.156;8.142;2023-07-13T03:49:24;26.20;96.20
18101;DHT22;9177;49.156;8.142;2023-07-13T03:52:02;26.20;96.20
18101;DHT22;9177;49.156;8.142;2023-07-13T03:54:29;26.20;96.20
18101;DHT22;9177;49.156;8.142;2023-07-13T03:56:58;26.20;96.20
18101;DHT22;9177;49.156;8.142;2023-07-13T03:59:25;26.20;96.20
18101;DHT22;9177;49.156;8.142;2023-07-13T04:01:53;26.20;96.20
18101;DHT22;9177;49.156;8.142;2023-07-13T04:04:23;26.20;96.20
18101;DHT22;9177;49.156;8.142;2023-07-13T04:06:49;26.20;96.20
18101;DHT22;9177;49.156;8.142;2023-07-13T04:09:19;26.20;96.20
18101;DHT22;9177;49.156;8.142;2023-07-13T04:11:46;26.20;96.20
18101;DHT22;9177;49.156;8.142;2023-07-13T04:14:15;26.20;96.20
18101;DHT22;9177;49.156;8.142;2023-07-13T04:16:42;26.20;96.20
18101;DHT22;9177;49.156;8.142;2023-07-13T04:19:09;26.20;96.20
18101;DHT22;9177;49.156;8.142;2023-07-13T04:21:36;26.20;96.20
18101;DHT22;9177;49.156;8.142;2023-07-13T04:24:04;26.20;96.20
18101;DHT22;9177;49.156;8.142;2023-07-13T04:26:31;26.20;96.20
18101;DHT22;9177;49.156;8.142;2023-07-13T04:29:02;26.20;96.20
18101;DHT22;9177;49.156;8.142;2023-07-13T04:31:30;26.20;96.20
18101;DHT22;9177;49.156;8.142;2023-07-13T04:33:58;26.20;96.20
18101;DHT22;9177;49.156;8.142;2023-07-13T04:36:25;26.20;96.20
18101;DHT22;9177;49.156;8.142;2023-07-13T04:38:53;26.20;96.20
18101;DHT22;9177;49.156;8.142;2023-07-13T04:41:20;26.20;96.20
18101;DHT22;9177;49.156;8.142;2023-07-13T04:43:47;26.10;96.10
18101;DHT22;9177;49.156;8.142;2023-07-13T04:46:17;26.10;96.10
18101;DHT22;9177;49.156;8.142;2023-07-13T04:48:46;26.20;96.20
18101;DHT22;9177;49.156;8.142;2023-07-13T04:51:13;26.10;96.10
18101;DHT22;9177;49.156;8.142;2023-07-13T04:53:42;26.10;96.10
18101;DHT22;9177;49.156;8.142;2023-07-13T04:56:12;26.10;96.10
18101;DHT22;9177;49.156;8.142;2023-07-13T04:58:39;26.10;96.10
18101;DHT22;9177;49.156;8.142;2023-07-13T05:01:06;26.10;96.10
18101;DHT22;9177;49.156;8.142;2023-07-13T05:03:34;26.10;96.10
18101;DHT22;9177;49.156;8.142;2023-07-13T05:06:04;26.10;96.10
18101;DHT22;9177;49.156;8.142;2023-07-13T05:08:32;26.10;96.10
18101;DHT22;9177;49.156;8.142;2023-07-13T05:10:59;26.10;96.10
18101;DHT22;9177;49.156;8.142;2023-07-13T05:13:26;26.10;96.10
18101;DHT22;9177;49.156;8.142;2023-07-13T05:15:57;26.10;96.50
18101;DHT22;9177;49.156;8.142;2023-07-13T05:18:25;26.10;96.10
18101;DHT22;9177;49.156;8.142;2023-07-13T05:20:58;26.10;96.10
18101;DHT22;9177;49.156;8.142;2023-07-13T05:23:32;26.10;96.10
18101;DHT22;9177;49.156;8.142;2023-07-13T05:26:00;26.10;96.10
18101;DHT22;9177;49.156;8.142;2023-07-13T05:28:27;26.10;96.10
18101;DHT22;9177;49.156;8.142;2023-07-13T05:30:54;26.10;96.10
18101;DHT22;9177;49.156;8.142;2023-07-13T05:33:25;26.10;96.10
18101;DHT22;9177;49.156;8.142;2023-07-13T05:36:00;26.10;96.10
18101;DHT22;9177;49.156;8.142;2023-07-13T05:38:27;26.10;96.10
18101;DHT22;9177;49.156;8.142;2023-07-13T05:40:57;26.10;96.10
18101;DHT22;9177;49.156;8.142;2023-07-13T05:43:24;26.10;96.10
18101;DHT22;9177;49.156;8.142;2023-07-13T05:45:52;26.10;96.10
18101;DHT22;9177;49.156;8.142;2023-07-13T05:48:22;26.10;96.10
18101;DHT22;9177;49.156;8.142;2023-07-13T05:50:51;26.10;96.10
18101;DHT22;9177;49.156;8.142;2023-07-13T05:53:18;26.10;96.10
18101;DHT22;9177;49.156;8.142;2023-07-13T05:55:46;26.10;96.10
18101;DHT22;9177;49.156;8.142;2023-07-13T05:58:17;26.10;96.10
18101;DHT22;9177;49.156;8.142;2023-07-13T06:00:44;26.10;96.10
18101;DHT22;9177;49.156;8.142;2023-07-13T06:03:16;26.10;96.10
18101;DHT22;9177;49.156;8.142;2023-07-13T06:05:43;26.10;96.10
18101;DHT22;9177;49.156;8.142;2023-07-13T06:08:10;26.10;96.10
18101;DHT22;9177;49.156;8.142;2023-07-13T06:10:37;26.10;96.10
18101;DHT22;9177;49.156;8.142;2023-07-13T06:13:04;26.10;96.10
18101;DHT22;9177;49.156;8.142;2023-07-13T06:15:34;26.10;96.10
18101;DHT22;9177;49.156;8.142;2023-07-13T06:18:01;26.10;96.10
18101;DHT22;9177;49.156;8.142;2023-07-13T06:20:37;26.10;96.10
18101;DHT22;9177;49.156;8.142;2023-07-13T06:23:04;26.10;96.10
18101;DHT22;9177;49.156;8.142;2023-07-13T06:25:31;26.10;96.10
18101;DHT22;9177;49.156;8.142;2023-07-13T06:27:58;26.10;96.10
18101;DHT22;9177;49.156;8.142;2023-07-13T06:30:25;26.10;96.10
18101;DHT22;9177;49.156;8.142;2023-07-13T06:32:54;26.10;96.10
18101;DHT22;9177;49.156;8.142;2023-07-13T06:35:21;26.10;96.10
18101;DHT22;9177;49.156;8.142;2023-07-13T06:37:47;26.10;96.10
18101;DHT22;9177;49.156;8.142;2023-07-13T06:40:14;26.10;96.00
18101;DHT22;9177;49.156;8.142;2023-07-13T06:42:41;26.10;96.00
18101;DHT22;9177;49.156;8.142;2023-07-13T06:45:09;26.10;96.00
18101;DHT22;9177;49.156;8.142;2023-07-13T06:47:38;26.10;96.00
18101;DHT22;9177;49.156;8.142;2023-07-13T06:50:12;26.10;96.00
18101;DHT22;9177;49.156;8.142;2023-07-13T06:52:39;26.10;96.00
18101;DHT22;9177;49.156;8.142;2023-07-13T06:55:07;26.10;96.00
18101;DHT22;9177;49.156;8.142;2023-07-13T06:57:34;26.00;96.00
18101;DHT22;9177;49.156;8.142;2023-07-13T07:00:01;25.80;95.90
18101;DHT22;9177;49.156;8.142;2023-07-13T07:02:28;25.70;95.40
18101;DHT22;9177;49.156;8.142;2023-07-13T07:04:55;25.50;95.30
18101;DHT22;9177;49.156;8.142;2023-07-13T07:07:25;25.30;94.80
18101;DHT22;9177;49.156;8.142;2023-07-13T07:09:52;25.00;94.90
18101;DHT22;9177;49.156;8.142;2023-07-13T07:12:18;24.70;95.00
18101;DHT22;9177;49.156;8.142;2023-07-13T07:14:45;24.80;94.90
18101;DHT22;9177;49.156;8.142;2023-07-13T07:17:12;24.80;94.60
18101;DHT22;9177;49.156;8.142;2023-07-13T07:19:39;24.90;94.40
18101;DHT22;9177;49.156;8.142;2023-07-13T07:22:08;24.80;94.00
18101;DHT22;9177;49.156;8.142;2023-07-13T07:24:36;24.70;94.10
18101;DHT22;9177;49.156;8.142;2023-07-13T07:27:12;24.60;94.30
18101;DHT22;9177;49.156;8.142;2023-07-13T07:29:41;24.40;94.20
18101;DHT22;9177;49.156;8.142;2023-07-13T07:32:08;24.60;94.20
18101;DHT22;9177;49.156;8.142;2023-07-13T07:34:35;24.70;93.90
18101;DHT22;9177;49.156;8.142;2023-07-13T07:37:03;24.80;93.80
18101;DHT22;9177;49.156;8.142;2023-07-13T07:39:30;24.70;93.90
18101;DHT22;9177;49.156;8.142;2023-07-13T07:41:58;24.70;93.70
18101;DHT22;9177;49.156;8.142;2023-07-13T07:44:25;24.70;93.50
18101;DHT22;9177;49.156;8.142;2023-07-13T07:46:54;24.80;93.20
18101;DHT22;9177;49.156;8.142;2023-07-13T07:49:21;24.60;93.20
18101;DHT22;9177;49.156;8.142;2023-07-13T07:51:50;24.70;93.00
18101;DHT22;9177;49.156;8.142;2023-07-13T07:54:26;24.80;93.20
18101;DHT22;9177;49.156;8.142;2023-07-13T07:56:53;25.10;92.90
18101;DHT22;9177;49.156;8.142;2023-07-13T07:59:22;25.20;93.00
18101;DHT22;9177;49.156;8.142;2023-07-13T08:01:49;25.40;92.70
18101;DHT22;9177;49.156;8.142;2023-07-13T08:04:16;25.40;92.60
18101;DHT22;9177;49.156;8.142;2023-07-13T08:06:43;25.30;92.50
18101;DHT22;9177;49.156;8.142;2023-07-13T08:09:09;25.40;92.70
18101;DHT22;9177;49.156;8.142;2023-07-13T08:11:36;25.30;92.70
18101;DHT22;9177;49.156;8.142;2023-07-13T08:14:03;25.20;92.80
18101;DHT22;9177;49.156;8.142;2023-07-13T08:16:32;25.30;92.70
18101;DHT22;9177;49.156;8.142;2023-07-13T08:18:59;25.20;92.70
18101;DHT22;9177;49.156;8.142;2023-07-13T08:21:26;25.00;92.70
18101;DHT22;9177;49.156;8.142;2023-07-13T08:23:53;25.00;92.80
18101;DHT22;9177;49.156;8.142;2023-07-13T08:26:20;25.10;92.50
18101;DHT22;9177;49.156;8.142;2023-07-13T08:28:47;25.00;92.60
18101;DHT22;9177;49.156;8.142;2023-07-13T08:31:17;25.10;92.70
18101;DHT22;9177;49.156;8.142;2023-07-13T08:33:46;25.20;92.70
18101;DHT22;9177;49.156;8.142;2023-07-13T08:36:36;25.20;92.70
18101;DHT22;9177;49.156;8.142;2023-07-13T08:39:13;25.20;92.60
18101;DHT22;9177;49.156;8.142;2023-07-13T08:41:40;25.00;92.70
18101;DHT22;9177;49.156;8.142;2023-07-13T08:44:16;25.20;92.60
18101;DHT22;9177;49.156;8.142;2023-07-13T08:46:45;25.20;92.00
18101;DHT22;9177;49.156;8.142;2023-07-13T08:49:17;25.10;91.60
18101;DHT22;9177;49.156;8.142;2023-07-13T08:51:50;25.00;91.60
18101;DHT22;9177;49.156;8.142;2023-07-13T08:54:21;25.00;91.80
18101;DHT22;9177;49.156;8.142;2023-07-13T08:56:50;25.00;91.80
18101;DHT22;9177;49.156;8.142;2023-07-13T08:59:21;25.00;91.50
18101;DHT22;9177;49.156;8.142;2023-07-13T09:02:06;25.00;91.30
18101;DHT22;9177;49.156;8.142;2023-07-13T09:04:49;25.00;91.40
18101;DHT22;9177;49.156;8.142;2023-07-13T09:07:26;25.10;91.50
18101;DHT22;9177;49.156;8.142;2023-07-13T09:10:06;25.10;91.30
18101;DHT22;9177;49.156;8.142;2023-07-13T09:12:43;25.00;91.30
18101;DHT22;9177;49.156;8.142;2023-07-13T09:15:23;25.20;91.20
18101;DHT22;9177;49.156;8.142;2023-07-13T09:17:53;25.20;91.10
18101;DHT22;9177;49.156;8.142;2023-07-13T09:20:30;25.20;91.10
18101;DHT22;9177;49.156;8.142;2023-07-13T09:23:03;25.20;91.20
18101;DHT22;9177;49.156;8.142;2023-07-13T09:25:35;25.30;91.10
18101;DHT22;9177;49.156;8.142;2023-07-13T09:28:09;25.20;91.30
18101;DHT22;9177;49.156;8.142;2023-07-13T09:30:43;25.20;91.20
18101;DHT22;9177;49.156;8.142;2023-07-13T09:33:11;25.30;91.30
18101;DHT22;9177;49.156;8.142;2023-07-13T09:35:41;25.40;91.20
18101;DHT22;9177;49.156;8.142;2023-07-13T09:38:13;25.40;91.30
18101;DHT22;9177;49.156;8.142;2023-07-13T09:41:04;25.40;91.10
18101;DHT22;9177;49.156;8.142;2023-07-13T09:43:36;25.20;91.10
18101;DHT22;9177;49.156;8.142;2023-07-13T09:46:03;25.20;91.00
18101;DHT22;9177;49.156;8.142;2023-07-13T09:48:34;25.20;91.00
18101;DHT22;9177;49.156;8.142;2023-07-13T09:51:09;25.20;90.90
18101;DHT22;9177;49.156;8.142;2023-07-13T09:53:44;25.20;90.80
18101;DHT22;9177;49.156;8.142;2023-07-13T09:56:20;25.20;90.80
18101;DHT22;9177;49.156;8.142;2023-07-13T09:58:50;25.30;90.80
18101;DHT22;9177;49.156;8.142;2023-07-13T10:01:32;25.30;90.60
18101;DHT22;9177;49.156;8.142;2023-07-13T10:04:10;25.40;90.60
18101;DHT22;9177;49.156;8.142;2023-07-13T10:06:41;25.70;90.30
18101;DHT22;9177;49.156;8.142;2023-07-13T10:09:09;25.70;90.10
18101;DHT22;9177;49.156;8.142;2023-07-13T10:11:37;25.50;89.80
18101;DHT22;9177;49.156;8.142;2023-07-13T10:14:12;25.50;90.00
18101;DHT22;9177;49.156;8.142;2023-07-13T10:16:42;25.50;90.00
18101;DHT22;9177;49.156;8.142;2023-07-13T10:19:13;25.50;89.50
18101;DHT22;9177;49.156;8.142;2023-07-13T10:21:50;25.40;89.00
18101;DHT22;9177;49.156;8.142;2023-07-13T10:24:20;25.30;88.90
18101;DHT22;9177;49.156;8.142;2023-07-13T10:26:52;25.40;88.50
18101;DHT22;9177;49.156;8.142;2023-07-13T10:29:23;25.40;88.20
18101;DHT22;9177;49.156;8.142;2023-07-13T10:31:52;25.40;88.50
18101;DHT22;9177;49.156;8.142;2023-07-13T10:34:22;25.50;88.80
18101;DHT22;9177;49.156;8.142;2023-07-13T10:36:51;25.40;88.50
18101;DHT22;9177;49.156;8.142;2023-07-13T10:39:20;25.90;89.00
18101;DHT22;9177;49.156;8.142;2023-07-13T10:41:52;25.90;88.40
18101;DHT22;9177;49.156;8.142;2023-07-13T10:44:23;26.00;88.50
18101;DHT22;9177;49.156;8.142;2023-07-13T10:46:58;26.00;88.40
18101;DHT22;9177;49.156;8.142;2023-07-13T10:49:28;26.10;88.80
18101;DHT22;9177;49.156;8.142;2023-07-13T10:51:57;26.10;88.70
18101;DHT22;9177;49.156;8.142;2023-07-13T10:54:27;26.10;88.70
18101;DHT22;9177;49.156;8.142;2023-07-13T10:57:16;26.10;88.80
18101;DHT22;9177;49.156;8.142;2023-07-13T10:59:47;26.10;89.00
18101;DHT22;9177;49.156;8.142;2023-07-13T11:02:24;26.10;89.00
18101;DHT22;9177;49.156;8.142;2023-07-13T11:04:57;26.20;89.40
18101;DHT22;9177;49.156;8.142;2023-07-13T11:07:52;26.20;89.50
18101;DHT22;9177;49.156;8.142;2023-07-13T11:16:42;26.20;90.00
18101;DHT22;9177;49.156;8.142;2023-07-13T11:19:28;26.20;90.10
18101;DHT22;9177;49.156;8.142;2023-07-13T11:22:16;26.20;90.10
18101;DHT22;9177;49.156;8.142;2023-07-13T11:24:56;26.20;90.20
18101;DHT22;9177;49.156;8.142;2023-07-13T11:27:38;26.20;90.20
18101;DHT22;9177;49.156;8.142;2023-07-13T11:30:21;26.30;90.30
18101;DHT22;9177;49.156;8.142;2023-07-13T11:32:51;26.30;90.40
18101;DHT22;9177;49.156;8.142;2023-07-13T11:35:22;26.30;90.40
18101;DHT22;9177;49.156;8.142;2023-07-13T11:37:51;26.30;90.40
18101;DHT22;9177;49.156;8.142;2023-07-13T11:40:22;26.30;90.50
18101;DHT22;9177;49.156;8.142;2023-07-13T11:42:59;26.30;90.60
18101;DHT22;9177;49.156;8.142;2023-07-13T11:45:26;26.30;90.60
18101;DHT22;9177;49.156;8.142;2023-07-13T11:47:54;26.30;90.60
18101;DHT22;9177;49.156;8.142;2023-07-13T11:50:24;26.30;90.70
18101;DHT22;9177;49.156;8.142;2023-07-13T11:52:52;26.30;90.80
18101;DHT22;9177;49.156;8.142;2023-07-13T11:55:23;26.30;90.80
18101;DHT22;9177;49.156;8.142;2023-07-13T11:57:54;26.30;90.80
18101;DHT22;9177;49.156;8.142;2023-07-13T12:00:26;26.40;90.90
18101;DHT22;9177;49.156;8.142;2023-07-13T12:02:57;26.30;90.90
18101;DHT22;9177;49.156;8.142;2023-07-13T12:05:31;26.30;90.90
18101;DHT22;9177;49.156;8.142;2023-07-13T12:07:58;26.30;91.00
18101;DHT22;9177;49.156;8.142;2023-07-13T12:10:43;26.30;91.00
18101;DHT22;9177;49.156;8.142;2023-07-13T12:13:13;26.30;91.10
18101;DHT22;9177;49.156;8.142;2023-07-13T12:15:42;26.40;91.10
18101;DHT22;9177;49.156;8.142;2023-07-13T12:18:14;26.40;91.20
18101;DHT22;9177;49.156;8.142;2023-07-13T12:20:41;26.40;91.30
18101;DHT22;9177;49.156;8.142;2023-07-13T12:23:19;26.40;91.20
18101;DHT22;9177;49.156;8.142;2023-07-13T12:25:49;26.40;91.30
18101;DHT22;9177;49.156;8.142;2023-07-13T12:28:28;26.40;91.30
18101;DHT22;9177;49.156;8.142;2023-07-13T12:30:58;26.40;91.30
18101;DHT22;9177;49.156;8.142;2023-07-13T12:33:28;26.40;91.30
18101;DHT22;9177;49.156;8.142;2023-07-13T12:35:57;26.40;91.30
18101;DHT22;9177;49.156;8.142;2023-07-13T12:38:27;26.40;91.40
18101;DHT22;9177;49.156;8.142;2023-07-13T12:41:02;26.40;91.40
18101;DHT22;9177;49.156;8.142;2023-07-13T12:43:36;26.40;91.40
18101;DHT22;9177;49.156;8.142;2023-07-13T12:46:14;26.40;91.50
18101;DHT22;9177;49.156;8.142;2023-07-13T12:48:43;26.40;91.50
18101;DHT22;9177;49.156;8.142;2023-07-13T12:51:12;26.30;91.50
18101;DHT22;9177;49.156;8.142;2023-07-13T12:53:43;26.30;91.50
18101;DHT22;9177;49.156;8.142;2023-07-13T12:56:19;26.40;91.60
18101;DHT22;9177;49.156;8.142;2023-07-13T12:58:48;26.40;91.60
18101;DHT22;9177;49.156;8.142;2023-07-13T13:01:21;26.40;91.60
18101;DHT22;9177;49.156;8.142;2023-07-13T13:03:52;26.40;91.60
18101;DHT22;9177;49.156;8.142;2023-07-13T13:06:22;26.40;91.70
18101;DHT22;9177;49.156;8.142;2023-07-13T13:08:51;26.40;91.70
18101;DHT22;9177;49.156;8.142;2023-07-13T13:11:22;26.40;91.70
18101;DHT22;9177;49.156;8.142;2023-07-13T13:13:50;26.40;91.70
18101;DHT22;9177;49.156;8.142;2023-07-13T13:16:21;26.40;91.70
18101;DHT22;9177;49.156;8.142;2023-07-13T13:18:50;26.40;92.00
18101;DHT22;9177;49.156;8.142;2023-07-13T13:21:20;26.40;91.80
18101;DHT22;9177;49.156;8.142;2023-07-13T13:23:47;26.40;91.80
18101;DHT22;9177;49.156;8.142;2023-07-13T13:26:16;26.40;91.90
18101;DHT22;9177;49.156;8.142;2023-07-13T13:28:49;26.40;91.80
18101;DHT22;9177;49.156;8.142;2023-07-13T13:31:16;26.40;91.80
18101;DHT22;9177;49.156;8.142;2023-07-13T13:33:45;26.40;92.10
18101;DHT22;9177;49.156;8.142;2023-07-13T13:36:18;26.50;92.30
18101;DHT22;9177;49.156;8.142;2023-07-13T13:38:45;26.60;92.40
18101;DHT22;9177;49.156;8.142;2023-07-13T13:41:14;26.60;92.30
18101;DHT22;9177;49.156;8.142;2023-07-13T13:43:42;26.60;92.20
18101;DHT22;9177;49.156;8.142;2023-07-13T13:46:15;26.60;92.20
18101;DHT22;9177;49.156;8.142;2023-07-13T13:48:45;26.60;92.20
18101;DHT22;9177;49.156;8.142;2023-07-13T13:51:15;26.60;92.10
18101;DHT22;9177;49.156;8.142;2023-07-13T13:53:43;26.50;92.10
18101;DHT22;9177;49.156;8.142;2023-07-13T13:56:11;26.50;92.00
18101;DHT22;9177;49.156;8.142;2023-07-13T13:58:38;26.50;92.10
18101;DHT22;9177;49.156;8.142;2023-07-13T14:01:14;26.50;92.10
18101;DHT22;9177;49.156;8.142;2023-07-13T14:03:43;26.50;92.30
18101;DHT22;9177;49.156;8.142;2023-07-13T14:06:12;26.50;92.50
18101;DHT22;9177;49.156;8.142;2023-07-13T14:08:42;26.50;92.40
18101;DHT22;9177;49.156;8.142;2023-07-13T14:11:15;26.60;92.30
18101;DHT22;9177;49.156;8.142;2023-07-13T14:13:51;26.60;92.50
18101;DHT22;9177;49.156;8.142;2023-07-13T14:16:25;26.60;92.50
18101;DHT22;9177;49.156;8.142;2023-07-13T14:18:53;26.70;92.40
18101;DHT22;9177;49.156;8.142;2023-07-13T14:21:22;26.70;92.50
18101;DHT22;9177;49.156;8.142;2023-07-13T14:23:49;26.70;92.40
18101;DHT22;9177;49.156;8.142;2023-07-13T14:26:18;26.70;92.50
18101;DHT22;9177;49.156;8.142;2023-07-13T14:28:48;26.70;92.60
18101;DHT22;9177;49.156;8.142;2023-07-13T14:31:16;26.70;92.40
18101;DHT22;9177;49.156;8.142;2023-07-13T14:33:47;26.70;92.30
18101;DHT22;9177;49.156;8.142;2023-07-13T14:36:24;26.70;92.30
18101;DHT22;9177;49.156;8.142;2023-07-13T14:38:51;26.60;92.30
18101;DHT22;9177;49.156;8.142;2023-07-13T14:41:19;26.60;92.50
18101;DHT22;9177;49.156;8.142;2023-07-13T14:43:46;26.60;92.40
18101;DHT22;9177;49.156;8.142;2023-07-13T14:46:28;26.60;92.40
18101;DHT22;9177;49.156;8.142;2023-07-13T14:49:09;26.60;92.50
18101;DHT22;9177;49.156;8.142;2023-07-13T14:51:40;26.60;92.40
18101;DHT22;9177;49.156;8.142;2023-07-13T14:54:08;26.70;92.60
18101;DHT22;9177;49.156;8.142;2023-07-13T14:56:37;26.70;92.80
18101;DHT22;9177;49.156;8.142;2023-07-13T14:59:04;26.70;92.50
18101;DHT22;9177;49.156;8.142;2023-07-13T15:01:40;26.70;92.40
18101;DHT22;9177;49.156;8.142;2023-07-13T15:04:17;26.80;92.50
18101;DHT22;9177;49.156;8.142;2023-07-13T15:06:54;26.80;92.40
18101;DHT22;9177;49.156;8.142;2023-07-13T15:09:30;26.80;92.30
18101;DHT22;9177;49.156;8.142;2023-07-13T15:11:59;26.80;92.30
18101;DHT22;9177;49.156;8.142;2023-07-13T15:14:26;26.80;92.30
18101;DHT22;9177;49.156;8.142;2023-07-13T15:16:55;26.80;92.30
18101;DHT22;9177;49.156;8.142;2023-07-13T15:19:29;26.80;92.30
18101;DHT22;9177;49.156;8.142;2023-07-13T15:21:56;26.80;92.40
18101;DHT22;9177;49.156;8.142;2023-07-13T15:24:24;26.80;92.40
18101;DHT22;9177;49.156;8.142;2023-07-13T15:26:51;26.80;92.40
18101;DHT22;9177;49.156;8.142;2023-07-13T15:29:19;26.80;92.40
18101;DHT22;9177;49.156;8.142;2023-07-13T15:31:46;26.90;92.40
18101;DHT22;9177;49.156;8.142;2023-07-13T15:34:15;26.80;92.40
18101;DHT22;9177;49.156;8.142;2023-07-13T15:36:44;26.90;92.40
18101;DHT22;9177;49.156;8.142;2023-07-13T15:39:15;26.90;92.40
18101;DHT22;9177;49.156;8.142;2023-07-13T15:41:43;26.90;92.40
18101;DHT22;9177;49.156;8.142;2023-07-13T15:44:25;26.90;92.30
18101;DHT22;9177;49.156;8.142;2023-07-13T15:46:53;26.90;92.40
18101;DHT22;9177;49.156;8.142;2023-07-13T15:49:23;26.90;92.30
18101;DHT22;9177;49.156;8.142;2023-07-13T15:51:52;26.90;92.30
18101;DHT22;9177;49.156;8.142;2023-07-13T15:54:19;26.90;92.30
18101;DHT22;9177;49.156;8.142;2023-07-13T15:56:51;27.00;92.40
18101;DHT22;9177;49.156;8.142;2023-07-13T15:59:18;27.00;92.40
18101;DHT22;9177;49.156;8.142;2023-07-13T16:01:45;26.90;92.30
18101;DHT22;9177;49.156;8.142;2023-07-13T16:04:15;26.90;92.30
18101;DHT22;9177;49.156;8.142;2023-07-13T16:06:45;26.90;92.40
18101;DHT22;9177;49.156;8.142;2023-07-13T16:09:19;26.90;92.40
18101;DHT22;9177;49.156;8.142;2023-07-13T16:11:51;26.90;92.40